Time;durP1;ratioP1;P1;durP2;ratioP2;P2;SDS_P1;SDS_P2;PMS_P1;PMS_P2;Temp;Humidity;BMP_temperature;BMP_pressure;BME280_temperature;BME280_humidity;BME280_pressure;Samples;Min_cycle;Max_cycle;Signal;HPM_P1;HPM_P2
2024/01/03 00:00:35;;;;;;;6.07;1.25;;;;;;;9.67;100.00;98070.50;6096537;23;20025;-84
2024/01/03 00:03:04;;;;;;;2.28;1.10;;;;;;;9.66;100.00;98063.53;6120571;23;20405;-85
2024/01/03 00:05:37;;;;;;;3.80;1.10;;;;;;;9.72;100.00;98070.81;6120988;23;20495;-85
2024/01/03 00:08:05;;;;;;;3.67;1.10;;;;;;;9.71;100.00;98072.59;6121446;23;20021;-84
2024/01/03 00:10:42;;;;;;;4.20;1.00;;;;;;;9.71;100.00;98059.34;6097659;23;20028;-84
2024/01/03 00:13:33;;;;;;;5.50;1.98;;;;;;;9.66;100.00;98067.00;6072950;23;20395;-84
2024/01/03 00:16:09;;;;;;;1.70;0.80;;;;;;;9.72;100.00;98062.84;6095808;23;20025;-84
2024/01/03 00:18:36;;;;;;;2.80;1.30;;;;;;;9.74;100.00;98056.38;6120343;23;20041;-83
2024/01/03 00:21:05;;;;;;;1.35;0.88;;;;;;;9.72;100.00;98063.69;6144823;23;20017;-84
2024/01/03 00:23:40;;;;;;;2.15;1.00;;;;;;;9.73;100.00;98072.44;6120465;23;20040;-84
2024/01/03 00:26:07;;;;;;;3.33;0.75;;;;;;;9.74;100.00;98087.34;6119882;23;20091;-85
2024/01/03 00:28:34;;;;;;;1.77;0.75;;;;;;;9.72;100.00;98090.19;6096722;23;20024;-85
2024/01/03 00:31:01;;;;;;;2.45;1.40;;;;;;;9.68;100.00;98086.22;6120925;23;20080;-85
2024/01/03 00:33:28;;;;;;;2.35;0.80;;;;;;;9.64;100.00;98098.19;6096159;23;20545;-85
2024/01/03 00:35:56;;;;;;;5.60;1.00;;;;;;;9.69;100.00;98102.94;6121780;23;20033;-84
2024/01/03 00:38:23;;;;;;;1.05;0.75;;;;;;;9.64;100.00;98105.28;6120256;23;20029;-83
2024/01/03 00:40:54;;;;;;;1.92;1.00;;;;;;;9.70;100.00;98108.06;6095039;23;20458;-85
2024/01/03 00:43:24;;;;;;;1.10;0.82;;;;;;;9.71;100.00;98114.19;6096479;23;20081;-84
2024/01/03 00:45:51;;;;;;;0.88;0.80;;;;;;;9.70;100.00;98113.38;6043045;23;20683;-84
2024/01/03 00:48:18;;;;;;;1.83;0.88;;;;;;;9.72;100.00;98111.38;6116519;23;20358;-84
2024/01/03 00:50:45;;;;;;;3.35;0.95;;;;;;;9.74;100.00;98119.16;6120339;23;20045;-84
2024/01/03 00:53:12;;;;;;;1.73;0.80;;;;;;;9.72;100.00;98127.28;6121267;23;20048;-84
2024/01/03 00:55:40;;;;;;;2.20;0.80;;;;;;;9.74;100.00;98120.00;6121145;23;20018;-84
2024/01/03 00:58:08;;;;;;;1.20;0.77;;;;;;;9.74;100.00;98122.66;6121012;23;20413;-84
2024/01/03 01:00:36;;;;;;;1.27;0.80;;;;;;;9.72;100.00;98132.59;6143678;23;20100;-84
2024/01/03 01:03:04;;;;;;;1.30;0.90;;;;;;;9.64;100.00;98122.03;6072190;23;20072;-84
2024/01/03 01:05:31;;;;;;;2.08;0.75;;;;;;;9.67;100.00;98124.31;6120274;23;20040;-85
2024/01/03 01:07:58;;;;;;;2.00;0.70;;;;;;;9.67;100.00;98111.06;6120539;23;20048;-84
2024/01/03 01:10:25;;;;;;;4.15;0.88;;;;;;;9.68;100.00;98133.09;6120142;23;20025;-85
2024/01/03 01:12:53;;;;;;;1.88;0.98;;;;;;;9.70;100.00;98123.16;6121232;23;20021;-85
2024/01/03 01:15:20;;;;;;;3.45;0.80;;;;;;;9.68;100.00;98120.66;6073084;23;20072;-85
2024/01/03 01:17:47;;;;;;;6.13;1.08;;;;;;;9.71;100.00;98120.31;6096084;23;20080;-85
2024/01/03 01:20:14;;;;;;;6.72;2.00;;;;;;;9.67;100.00;98119.03;6121736;23;20025;-85
2024/01/03 01:22:41;;;;;;;4.35;1.00;;;;;;;9.70;100.00;98125.81;6120607;23;20064;-85
2024/01/03 01:25:08;;;;;;;3.60;0.80;;;;;;;9.69;100.00;98125.00;6121096;23;20308;-85
2024/01/03 01:27:35;;;;;;;1.75;0.85;;;;;;;9.69;100.00;98116.19;6096395;23;20091;-85
2024/01/03 01:30:03;;;;;;;2.35;1.10;;;;;;;9.71;100.00;98132.75;6097100;23;20028;-84
2024/01/03 01:32:30;;;;;;;3.75;1.23;;;;;;;9.70;100.00;98131.94;6096021;23;20017;-85
2024/01/03 01:34:57;;;;;;;5.10;1.70;;;;;;;9.74;100.00;98132.41;6096732;23;20079;-84
2024/01/03 01:37:24;;;;;;;7.97;1.38;;;;;;;9.73;100.00;98136.06;6071512;23;20043;-86
2024/01/03 01:39:50;;;;;;;7.05;1.50;;;;;;;9.62;100.00;98139.09;6144187;23;20092;-85
2024/01/03 01:42:17;;;;;;;8.90;1.23;;;;;;;9.68;100.00;98138.41;6121276;23;20357;-85
2024/01/03 01:44:44;;;;;;;10.15;1.23;;;;;;;9.71;100.00;98138.06;6144908;23;20461;-85
2024/01/03 01:47:12;;;;;;;4.70;1.38;;;;;;;9.73;100.00;98142.19;6119592;23;20048;-85
2024/01/03 01:49:40;;;;;;;7.80;1.42;;;;;;;9.74;100.00;98141.19;6120934;23;20021;-84
2024/01/03 01:52:09;;;;;;;6.50;1.20;;;;;;;9.71;100.00;98133.56;6095389;23;20025;-85
2024/01/03 01:54:36;;;;;;;8.93;1.35;;;;;;;9.74;100.00;98137.69;6119646;23;20101;-85
2024/01/03 01:57:03;;;;;;;7.03;1.40;;;;;;;9.76;100.00;98139.19;6119543;23;20027;-85
2024/01/03 01:59:31;;;;;;;8.75;1.63;;;;;;;9.77;100.00;98132.91;6096335;23;20029;-85
2024/01/03 02:01:58;;;;;;;10.07;2.60;;;;;;;9.75;100.00;98134.88;6119446;23;20029;-85
2024/01/03 02:04:24;;;;;;;5.47;1.63;;;;;;;9.80;100.00;98154.75;6119353;23;20104;-85
2024/01/03 02:06:52;;;;;;;5.47;1.42;;;;;;;9.74;100.00;98151.81;6095333;23;20026;-85
2024/01/03 02:09:19;;;;;;;10.13;1.73;;;;;;;9.78;100.00;98145.13;6119958;23;20064;-85
2024/01/03 02:11:46;;;;;;;6.00;1.35;;;;;;;9.79;100.00;98143.31;6119226;23;20672;-86
2024/01/03 02:14:13;;;;;;;7.38;1.30;;;;;;;9.78;100.00;98145.13;6096178;23;20035;-85
2024/01/03 02:16:41;;;;;;;6.45;1.30;;;;;;;9.80;100.00;98147.63;6095872;23;20068;-85
2024/01/03 02:19:07;;;;;;;7.03;1.45;;;;;;;9.82;100.00;98150.94;6071707;23;20377;-85
2024/01/03 02:21:35;;;;;;;13.02;1.55;;;;;;;9.85;100.00;98149.78;6119804;23;20121;-85
2024/01/03 02:24:03;;;;;;;7.47;1.50;;;;;;;9.85;100.00;98147.94;6096458;23;20448;-85
2024/01/03 02:26:29;;;;;;;10.30;2.15;;;;;;;9.87;100.00;98150.41;6071120;23;20025;-85
2024/01/03 02:28:56;;;;;;;14.15;2.10;;;;;;;9.88;100.00;98150.25;6120528;23;20021;-85
2024/01/03 02:31:23;;;;;;;6.82;1.48;;;;;;;9.86;100.00;98133.69;6119685;23;20036;-85
2024/01/03 02:33:50;;;;;;;8.55;1.80;;;;;;;9.89;100.00;98151.06;6119835;23;20033;-86
2024/01/03 02:36:17;;;;;;;12.13;1.85;;;;;;;9.89;100.00;98135.16;6073113;23;20018;-85
2024/01/03 02:38:48;;;;;;;8.57;1.58;;;;;;;9.90;100.00;98142.94;6121661;23;20056;-85
2024/01/03 02:41:15;;;;;;;9.63;2.08;;;;;;;9.91;100.00;98141.13;6122551;23;20056;-86
2024/01/03 02:43:42;;;;;;;8.98;3.03;;;;;;;9.92;100.00;98140.09;6097656;23;20105;-86
2024/01/03 02:46:09;;;;;;;5.68;1.83;;;;;;;9.92;100.00;98151.56;6098114;23;20026;-85
2024/01/03 02:48:39;;;;;;;7.78;2.03;;;;;;;9.90;99.89;98132.34;6073638;23;20021;-86
2024/01/03 02:51:06;;;;;;;6.22;1.42;;;;;;;9.92;99.81;98140.09;6122457;23;20029;-86
2024/01/03 02:53:33;;;;;;;7.03;1.35;;;;;;;9.92;100.00;98140.09;6098119;23;20021;-85
2024/01/03 02:55:59;;;;;;;10.77;1.60;;;;;;;9.91;99.92;98133.97;6121807;23;20120;-85
2024/01/03 02:58:26;;;;;;;6.72;1.92;;;;;;;9.91;99.61;98141.13;6097821;23;20029;-86
2024/01/03 03:00:53;;;;;;;14.15;1.92;;;;;;;9.89;99.52;98132.50;6122402;23;20021;-85
2024/01/03 03:03:20;;;;;;;6.22;1.27;;;;;;;9.91;99.54;98122.56;6099090;23;20022;-85
2024/01/03 03:05:47;;;;;;;5.90;1.60;;;;;;;9.91;99.40;98118.06;6097684;23;20029;-87
2024/01/03 03:08:14;;;;;;;6.25;1.38;;;;;;;9.84;98.57;98125.06;6098646;23;20021;-87
2024/01/03 03:10:41;;;;;;;2.35;1.10;;;;;;;9.92;99.10;98124.19;6072692;23;20589;-86
2024/01/03 03:13:08;;;;;;;7.82;2.17;;;;;;;9.88;98.95;98115.78;6121491;23;20029;-87
2024/01/03 03:15:34;;;;;;;5.25;1.20;;;;;;;9.89;99.15;98117.41;6121646;23;20092;-85
2024/01/03 03:18:01;;;;;;;7.78;1.60;;;;;;;9.91;99.30;98123.38;6121183;23;20350;-85
2024/01/03 03:20:28;;;;;;;5.00;1.20;;;;;;;9.92;99.15;98097.69;6120985;23;20373;-85
2024/01/03 03:22:55;;;;;;;11.32;3.45;;;;;;;9.87;98.59;98092.06;6097289;23;20025;-85
2024/01/03 03:25:22;;;;;;;9.38;1.63;;;;;;;9.94;99.23;98103.66;6096989;23;20017;-86
2024/01/03 03:27:49;;;;;;;9.88;1.50;;;;;;;9.91;99.22;98104.00;6120432;23;20028;-85
2024/01/03 03:30:16;;;;;;;7.72;1.40;;;;;;;9.93;99.37;98076.31;6072909;23;20080;-84
2024/01/03 03:32:45;;;;;;;8.48;1.30;;;;;;;9.88;99.30;98099.06;6072975;23;20105;-86
2024/01/03 03:35:12;;;;;;;6.05;2.05;;;;;;;9.93;99.21;98109.97;6074168;23;20024;-85
2024/01/03 03:37:40;;;;;;;6.70;1.45;;;;;;;9.91;99.04;98112.78;6122187;23;20076;-85
2024/01/03 03:40:10;;;;;;;2.08;1.38;;;;;;;9.92;99.28;98106.50;6096266;23;20030;-85
2024/01/03 03:42:37;;;;;;;2.72;1.00;;;;;;;9.94;99.32;98124.84;6096401;23;20072;-85
2024/01/03 03:45:04;;;;;;;6.80;1.30;;;;;;;9.95;99.14;98124.69;6096497;23;20033;-86
2024/01/03 03:47:31;;;;;;;3.70;1.45;;;;;;;9.93;98.79;98145.25;6120393;23;20022;-85
2024/01/03 03:49:58;;;;;;;5.82;1.10;;;;;;;9.93;98.84;98129.34;6120517;23;20068;-85
2024/01/03 03:52:25;;;;;;;6.90;1.63;;;;;;;9.86;98.43;98133.69;6095200;23;20026;-86
2024/01/03 03:54:52;;;;;;;4.55;1.40;;;;;;;9.92;99.01;98137.44;6071823;23;20100;-86
2024/01/03 03:57:19;;;;;;;11.43;1.55;;;;;;;9.90;98.52;98129.69;6144366;23;20036;-86
2024/01/03 03:59:45;;;;;;;7.72;1.88;;;;;;;9.90;98.64;98137.66;6145056;23;20029;-85
2024/01/03 04:02:12;;;;;;;7.40;1.23;;;;;;;9.95;98.83;98145.09;6096445;23;20076;-85
2024/01/03 04:04:39;;;;;;;5.38;1.42;;;;;;;9.95;98.76;98150.38;6093419;23;20052;-86
2024/01/03 04:07:06;;;;;;;7.15;1.40;;;;;;;9.97;99.21;98158.97;6096160;23;20029;-86
2024/01/03 04:09:33;;;;;;;6.47;1.25;;;;;;;9.94;99.10;98154.84;6071205;23;20022;-86
2024/01/03 04:12:00;;;;;;;10.38;1.75;;;;;;;9.94;98.61;98151.38;6120249;23;20045;-85
2024/01/03 04:14:27;;;;;;;8.02;1.38;;;;;;;9.96;98.69;98147.53;6120059;23;20442;-85
2024/01/03 04:16:53;;;;;;;7.07;1.70;;;;;;;9.94;98.49;98156.66;6096979;23;20402;-85
2024/01/03 04:19:20;;;;;;;12.75;2.20;;;;;;;9.92;98.58;98164.81;6096140;23;20346;-86
2024/01/03 04:21:47;;;;;;;8.52;1.45;;;;;;;9.93;98.38;98158.50;6120484;23;20084;-85
2024/01/03 04:24:14;;;;;;;9.20;1.60;;;;;;;9.96;98.42;98162.63;6070888;23;20021;-85
2024/01/03 04:26:41;;;;;;;11.65;1.77;;;;;;;9.80;99.08;98163.53;6095043;23;20040;-87
2024/01/03 04:29:08;;;;;;;9.75;1.55;;;;;;;9.91;99.38;98162.31;6071910;23;20353;-85
2024/01/03 04:31:34;;;;;;;11.25;2.42;;;;;;;9.92;99.96;98164.81;6119053;23;20022;-86
2024/01/03 04:34:01;;;;;;;9.18;2.10;;;;;;;9.95;99.72;98171.59;6119805;23;20353;-86
2024/01/03 04:36:28;;;;;;;10.85;1.77;;;;;;;9.94;100.00;98181.34;6095179;23;20024;-85
2024/01/03 04:38:55;;;;;;;5.60;1.42;;;;;;;9.95;100.00;98171.59;6071561;23;1135102;-85
2024/01/03 04:41:22;;;;;;;4.10;1.60;;;;;;;9.94;100.00;98177.88;6097778;23;20021;-85
2024/01/03 04:43:49;;;;;;;4.95;1.65;;;;;;;9.93;100.00;98163.00;6096012;23;20060;-86
2024/01/03 04:46:16;;;;;;;8.10;1.58;;;;;;;9.93;100.00;98177.06;6096117;23;20045;-86
2024/01/03 04:48:43;;;;;;;14.25;1.75;;;;;;;9.93;100.00;98184.19;6145536;23;20017;-85
2024/01/03 04:51:10;;;;;;;6.47;1.73;;;;;;;9.92;100.00;98179.88;6047247;23;20025;-86
2024/01/03 04:53:37;;;;;;;6.40;1.70;;;;;;;9.90;99.75;98179.25;6091402;23;20085;-86
2024/01/03 04:56:05;;;;;;;12.02;1.70;;;;;;;9.90;99.63;98197.81;6068824;23;20061;-86
2024/01/03 04:58:31;;;;;;;6.50;1.73;;;;;;;9.90;99.62;98177.41;6092087;23;20155;-85
2024/01/03 05:00:58;;;;;;;9.65;2.20;;;;;;;9.83;98.47;98191.53;6120372;23;20369;-85
2024/01/03 05:03:26;;;;;;;4.72;1.75;;;;;;;9.88;98.72;98189.19;6072698;23;20014;-84
2024/01/03 05:05:53;;;;;;;11.85;2.05;;;;;;;9.90;98.71;98190.66;6096963;23;20476;-85
2024/01/03 05:08:20;;;;;;;9.60;1.88;;;;;;;9.90;98.61;98187.19;6145221;23;20037;-86
2024/01/03 05:10:46;;;;;;;7.07;1.42;;;;;;;9.93;98.16;98202.75;6121492;23;20386;-85
2024/01/03 05:13:13;;;;;;;5.55;1.63;;;;;;;9.91;97.87;98202.91;6095925;23;20040;-86
2024/01/03 05:15:40;;;;;;;12.63;1.95;;;;;;;9.95;97.85;98208.72;6097442;23;20084;-85
2024/01/03 05:18:07;;;;;;;9.10;2.60;;;;;;;9.89;96.72;98212.03;6121639;23;20393;-85
2024/01/03 05:20:35;;;;;;;12.00;2.15;;;;;;;9.94;96.37;98199.09;6121344;23;20025;-85
2024/01/03 05:23:02;;;;;;;12.10;1.75;;;;;;;9.92;96.39;98207.25;6072893;23;20037;-85
2024/01/03 05:25:28;;;;;;;9.90;2.60;;;;;;;9.96;96.51;98207.72;6120849;23;20026;-84
2024/01/03 05:27:55;;;;;;;21.00;2.67;;;;;;;9.95;96.17;98214.84;6120786;23;20474;-85
2024/01/03 05:30:22;;;;;;;7.13;2.15;;;;;;;9.98;96.34;98221.63;6097237;23;20752;-84
2024/01/03 05:32:49;;;;;;;7.32;1.52;;;;;;;10.00;96.80;98214.34;6072614;23;20686;-85
2024/01/03 05:35:16;;;;;;;29.67;4.28;;;;;;;9.99;96.22;98221.44;6072257;23;20525;-85
2024/01/03 05:37:43;;;;;;;10.25;1.65;;;;;;;9.97;95.65;98222.59;6072172;23;20016;-86
2024/01/03 05:40:10;;;;;;;10.82;2.17;;;;;;;9.92;95.18;98212.53;6119187;23;20026;-85
2024/01/03 05:42:36;;;;;;;6.00;1.70;;;;;;;9.97;95.54;98209.34;6120313;23;20100;-85
2024/01/03 05:45:03;;;;;;;13.10;2.03;;;;;;;9.92;94.43;98203.75;6072136;23;20049;-86
2024/01/03 05:47:30;;;;;;;15.68;1.63;;;;;;;9.94;95.04;98209.69;6096125;23;20092;-85
2024/01/03 05:49:58;;;;;;;7.60;1.35;;;;;;;9.93;94.31;98213.38;6071163;23;20025;-86
2024/01/03 05:52:25;;;;;;;19.27;3.50;;;;;;;9.96;94.88;98219.13;6096332;23;20072;-85
2024/01/03 05:54:51;;;;;;;7.72;1.98;;;;;;;9.97;94.86;98225.25;6120122;23;20044;-86
2024/01/03 05:57:18;;;;;;;10.35;1.63;;;;;;;9.96;94.39;98215.66;6096178;23;20121;-87
2024/01/03 05:59:45;;;;;;;15.55;1.73;;;;;;;9.98;94.50;98216.31;6119652;23;20100;-85
2024/01/03 06:02:12;;;;;;;9.93;1.73;;;;;;;9.98;94.15;98218.97;6120660;23;20026;-86
2024/01/03 06:04:39;;;;;;;8.23;1.45;;;;;;;10.01;94.80;98218.63;6095552;23;22816;-87
2024/01/03 06:07:06;;;;;;;4.57;1.60;;;;;;;10.00;94.35;98217.00;6120409;23;20361;-86
2024/01/03 06:09:33;;;;;;;18.55;1.90;;;;;;;9.99;93.48;98218.78;6144685;23;20028;-86
2024/01/03 06:12:00;;;;;;;17.38;3.20;;;;;;;9.96;93.34;98219.13;6067638;23;20024;-85
2024/01/03 06:14:26;;;;;;;16.27;2.45;;;;;;;10.00;93.75;98212.50;6067511;23;20025;-84
2024/01/03 06:16:53;;;;;;;17.30;2.85;;;;;;;10.00;93.76;98227.59;6118011;23;20053;-86
2024/01/03 06:19:20;;;;;;;12.50;2.22;;;;;;;9.97;93.18;98223.47;6145263;23;20080;-84
2024/01/03 06:21:47;;;;;;;9.80;2.47;;;;;;;10.03;93.71;98235.19;6120517;23;20453;-85
2024/01/03 06:24:14;;;;;;;9.18;2.60;;;;;;;9.96;92.64;98221.78;6091418;23;20468;-86
2024/01/03 06:26:41;;;;;;;13.65;1.70;;;;;;;10.03;93.12;98226.44;6091273;23;20085;-86
2024/01/03 06:29:08;;;;;;;24.10;3.67;;;;;;;10.02;93.23;98204.34;6090493;23;20021;-85
2024/01/03 06:31:35;;;;;;;14.18;2.35;;;;;;;10.03;93.29;98221.94;6090792;23;20077;-86
2024/01/03 06:34:02;;;;;;;10.40;1.42;;;;;;;10.06;93.43;98228.72;6092596;23;20026;-85
2024/01/03 06:36:29;;;;;;;14.82;2.58;;;;;;;10.05;92.85;98224.41;6065449;23;20026;-86
2024/01/03 06:38:56;;;;;;;15.80;1.52;;;;;;;10.05;92.63;98225.25;6090167;23;20030;-87
2024/01/03 06:41:23;;;;;;;11.68;2.05;;;;;;;9.93;91.23;98218.66;6068071;23;20018;-84
2024/01/03 06:43:50;;;;;;;8.77;1.55;;;;;;;10.04;91.85;98218.28;6065811;23;20354;-82
2024/01/03 06:46:17;;;;;;;18.77;2.83;;;;;;;10.05;91.74;98222.59;6092461;23;22257;-82
2024/01/03 06:48:44;;;;;;;16.50;1.67;;;;;;;9.92;89.77;98212.53;6094622;23;20346;-82
2024/01/03 06:51:11;;;;;;;12.10;1.58;;;;;;;10.02;91.26;98214.16;6119180;23;20056;-83
2024/01/03 06:53:39;;;;;;;10.68;1.67;;;;;;;10.01;90.96;98234.53;6118966;23;22165;-82
2024/01/03 06:56:06;;;;;;;13.35;1.73;;;;;;;10.03;91.52;98231.72;6142788;23;20092;-83
2024/01/03 06:58:32;;;;;;;13.40;2.85;;;;;;;10.00;91.24;98231.06;6119057;23;20389;-83
2024/01/03 07:00:59;;;;;;;4.82;1.48;;;;;;;10.05;91.77;98238.50;6095041;23;20022;-82
2024/01/03 07:03:27;;;;;;;12.20;1.98;;;;;;;10.04;91.93;98241.31;6118776;23;20048;-83
2024/01/03 07:05:54;;;;;;;4.70;1.25;;;;;;;10.04;91.48;98233.38;6094815;23;20030;-82
2024/01/03 07:08:21;;;;;;;10.77;1.58;;;;;;;10.06;91.95;98234.84;6095040;23;20013;-83
2024/01/03 07:10:48;;;;;;;16.13;2.67;;;;;;;10.06;92.50;98226.06;6117976;23;20013;-83
2024/01/03 07:13:14;;;;;;;15.65;2.65;;;;;;;10.06;92.51;98224.25;6118143;23;20597;-83
2024/01/03 07:15:41;;;;;;;7.90;1.85;;;;;;;10.07;92.86;98223.22;6142979;23;20022;-82
2024/01/03 07:18:08;;;;;;;13.77;1.65;;;;;;;10.08;92.80;98224.09;6142640;23;20612;-83
2024/01/03 07:20:35;;;;;;;14.77;1.75;;;;;;;10.07;92.96;98217.94;6143143;23;20096;-83
2024/01/03 07:23:02;;;;;;;11.85;1.70;;;;;;;10.10;93.12;98219.41;6120206;23;20028;-82
2024/01/03 07:25:29;;;;;;;15.88;1.88;;;;;;;10.08;93.12;98222.25;6096230;23;20064;-83
2024/01/03 07:27:56;;;;;;;9.88;1.77;;;;;;;10.09;93.41;98221.25;6119564;23;20092;-82
2024/01/03 07:30:25;;;;;;;11.15;2.85;;;;;;;10.09;93.39;98218.59;6120671;23;20449;-82
2024/01/03 07:32:56;;;;;;;20.83;2.95;;;;;;;10.10;93.75;98214.09;6121281;23;20033;-83
2024/01/03 07:35:24;;;;;;;13.70;1.70;;;;;;;10.10;93.60;98217.59;6096582;23;20029;-83
2024/01/03 07:37:51;;;;;;;25.23;3.60;;;;;;;10.09;94.26;98223.91;6119319;23;20021;-82
2024/01/03 07:40:18;;;;;;;11.20;1.80;;;;;;;10.06;94.62;98218.94;6071429;23;20040;-84
2024/01/03 07:42:46;;;;;;;11.10;2.55;;;;;;;10.08;94.79;98227.56;6095771;23;20020;-82
2024/01/03 07:45:13;;;;;;;12.05;1.90;;;;;;;10.08;95.23;98227.56;6070020;23;20101;-83
2024/01/03 07:47:39;;;;;;;21.33;2.10;;;;;;;10.06;95.42;98226.06;6090554;23;20068;-83
2024/01/03 07:50:06;;;;;;;10.60;2.90;;;;;;;10.07;95.49;98231.19;6067472;23;20022;-82
2024/01/03 07:52:33;;;;;;;8.02;1.80;;;;;;;10.07;95.60;98233.84;6090482;23;20398;-84
2024/01/03 07:55:00;;;;;;;15.27;2.28;;;;;;;10.06;95.73;98226.91;6115530;23;20029;-84
2024/01/03 07:57:27;;;;;;;19.80;2.15;;;;;;;10.02;96.02;98228.22;6116839;23;20021;-85
2024/01/03 07:59:53;;;;;;;19.50;1.90;;;;;;;10.02;95.98;98214.97;6076688;23;20019;-84
2024/01/03 08:02:23;;;;;;;10.05;2.03;;;;;;;10.05;95.83;98206.69;6096003;23;20025;-85
2024/01/03 08:04:49;;;;;;;9.18;1.52;;;;;;;10.07;95.96;98214.47;6145064;23;20032;-83
2024/01/03 08:07:16;;;;;;;8.85;2.85;;;;;;;10.08;96.13;98205.53;6144075;23;20623;-84
2024/01/03 08:09:43;;;;;;;9.25;1.67;;;;;;;10.08;95.81;98193.09;6119324;23;20024;-84
2024/01/03 08:12:10;;;;;;;9.82;1.60;;;;;;;10.09;95.96;98193.91;6119833;23;20025;-82
2024/01/03 08:14:37;;;;;;;20.55;1.95;;;;;;;10.09;96.18;98193.91;6119297;23;20025;-82
2024/01/03 08:17:04;;;;;;;18.50;2.28;;;;;;;10.10;96.20;98196.38;6042999;23;20021;-82
2024/01/03 08:19:30;;;;;;;10.55;1.67;;;;;;;10.13;96.42;98195.22;6118144;23;20122;-82
2024/01/03 08:21:59;;;;;;;15.15;2.75;;;;;;;10.10;96.31;98203.50;6119316;23;20021;-82
2024/01/03 08:24:26;;;;;;;15.65;2.55;;;;;;;10.10;97.01;98201.69;6144529;23;20342;-81
2024/01/03 08:26:53;;;;;;;9.32;2.70;;;;;;;10.09;97.16;98184.09;6071494;23;20043;-81
2024/01/03 08:29:20;;;;;;;17.90;3.40;;;;;;;10.09;97.22;98186.75;6119569;23;20109;-82
2024/01/03 08:31:48;;;;;;;10.50;1.80;;;;;;;10.08;96.83;98198.38;6146636;23;20037;-82
2024/01/03 08:34:15;;;;;;;13.52;1.98;;;;;;;10.09;97.04;98186.75;6095901;23;20033;-82
2024/01/03 08:36:45;;;;;;;15.80;2.05;;;;;;;10.09;97.23;98193.91;6118656;23;20018;-82
2024/01/03 08:39:11;;;;;;;13.13;3.17;;;;;;;10.11;96.73;98184.78;6143740;23;20025;-82
2024/01/03 08:41:38;;;;;;;4.45;1.40;;;;;;;10.11;96.87;98183.94;6120190;23;20017;-82
2024/01/03 08:44:05;;;;;;;13.88;1.98;;;;;;;10.12;96.87;98189.06;6144055;23;20025;-82
2024/01/03 08:46:38;;;;;;;8.88;1.63;;;;;;;10.10;96.69;98217.59;6094888;23;20080;-82
2024/01/03 08:49:05;;;;;;;19.25;2.83;;;;;;;10.11;97.36;98210.47;6119723;23;20370;-82
2024/01/03 08:51:32;;;;;;;7.10;2.00;;;;;;;10.13;96.96;98219.09;6144021;23;20072;-83
2024/01/03 08:53:59;;;;;;;16.73;2.17;;;;;;;10.13;97.13;98214.59;6119747;23;20029;-82
2024/01/03 08:56:26;;;;;;;15.10;1.92;;;;;;;10.09;97.37;98210.63;6119297;23;20025;-82
2024/01/03 08:58:53;;;;;;;8.65;1.77;;;;;;;10.12;97.42;98214.75;6095507;23;22434;-84
2024/01/03 09:01:21;;;;;;;6.07;1.45;;;;;;;10.13;97.22;98201.34;6119689;23;20090;-82
2024/01/03 09:03:49;;;;;;;12.48;1.83;;;;;;;10.13;97.71;98197.88;6094795;23;20076;-82
2024/01/03 09:06:21;;;;;;;5.50;1.55;;;;;;;10.13;97.53;98189.91;6095021;23;20017;-83
2024/01/03 09:08:50;;;;;;;14.03;2.10;;;;;;;10.17;97.96;98194.66;6119293;23;20454;-83
2024/01/03 09:11:18;;;;;;;12.45;1.92;;;;;;;10.18;98.12;98201.66;6119420;23;20566;-83
2024/01/03 09:13:49;;;;;;;14.98;1.70;;;;;;;10.18;98.08;98195.53;6118496;23;20032;-83
2024/01/03 09:16:26;;;;;;;12.20;2.05;;;;;;;10.17;97.92;98199.97;6118960;23;20127;-86
2024/01/03 09:18:53;;;;;;;8.35;1.65;;;;;;;10.20;98.28;98196.16;6096678;23;20566;-82
2024/01/03 09:21:21;;;;;;;13.80;3.63;;;;;;;10.22;97.59;98191.50;6095721;23;20080;-82
2024/01/03 09:23:49;;;;;;;14.95;2.30;;;;;;;10.24;97.54;98204.59;6094440;23;20465;-83
2024/01/03 09:26:19;;;;;;;14.75;1.70;;;;;;;10.17;99.18;98199.97;6144237;23;20053;-82
2024/01/03 09:28:47;;;;;;;17.17;1.92;;;;;;;10.19;98.72;98208.59;6095191;23;20021;-82
2024/01/03 09:31:14;;;;;;;17.85;2.17;;;;;;;10.20;98.63;98209.41;6143704;23;20021;-83
2024/01/03 09:33:41;;;;;;;15.07;2.10;;;;;;;10.21;98.00;98219.03;6095264;23;20048;-82
2024/01/03 09:36:21;;;;;;;11.48;1.95;;;;;;;10.17;97.88;98204.47;6119375;23;20033;-82
2024/01/03 09:38:54;;;;;;;11.73;1.55;;;;;;;10.16;97.90;98216.91;6118589;23;20112;-82
2024/01/03 09:41:22;;;;;;;13.23;1.80;;;;;;;10.20;97.29;98210.28;6142597;23;20061;-85
2024/01/03 09:43:52;;;;;;;9.60;1.65;;;;;;;10.21;97.26;98219.88;6120319;23;20037;-83
2024/01/03 09:46:20;;;;;;;10.05;2.30;;;;;;;10.18;98.09;98206.13;6095087;23;20017;-82
2024/01/03 09:48:49;;;;;;;11.02;1.30;;;;;;;10.14;98.09;98208.28;6094518;23;20104;-83
2024/01/03 09:51:19;;;;;;;12.00;1.83;;;;;;;10.17;98.34;98202.63;6072067;23;20543;-83
2024/01/03 09:53:46;;;;;;;14.82;1.67;;;;;;;10.18;98.08;98206.97;6095729;23;20350;-83
2024/01/03 09:56:13;;;;;;;10.93;1.35;;;;;;;10.20;98.25;98210.28;6095223;23;20025;-83
2024/01/03 09:58:39;;;;;;;8.80;1.55;;;;;;;10.19;98.66;98221.03;6094650;23;20028;-83
2024/01/03 10:01:07;;;;;;;9.35;2.75;;;;;;;10.18;99.06;98222.88;6118626;23;20065;-82
2024/01/03 10:03:33;;;;;;;10.20;2.45;;;;;;;10.19;98.59;98221.84;6095410;23;20097;-82
2024/01/03 10:06:13;;;;;;;20.85;4.57;;;;;;;10.19;98.21;98216.56;6118791;23;20025;-82
2024/01/03 10:09:02;;;;;;;20.58;5.15;;;;;;;10.17;98.86;98205.28;6096030;23;20025;-82
2024/01/03 10:11:30;;;;;;;9.07;2.22;;;;;;;10.21;98.86;98201.28;6118206;23;20604;-82
2024/01/03 10:14:14;;;;;;;12.57;2.22;;;;;;;10.15;100.00;98212.63;6118867;23;20033;-84
2024/01/03 10:16:43;;;;;;;11.65;1.67;;;;;;;10.22;100.00;98199.47;6118019;23;20026;-83
2024/01/03 10:19:12;;;;;;;11.32;2.30;;;;;;;10.26;100.00;98202.63;6095681;23;20080;-84
2024/01/03 10:21:55;;;;;;;8.63;2.15;;;;;;;10.22;100.00;98202.13;6119251;23;20049;-84
2024/01/03 10:24:26;;;;;;;16.98;2.08;;;;;;;10.28;100.00;98195.31;6143051;23;20029;-83
2024/01/03 10:26:54;;;;;;;8.65;1.90;;;;;;;10.27;100.00;98202.41;6094535;23;20084;-83
2024/01/03 10:29:22;;;;;;;11.55;1.75;;;;;;;10.27;100.00;98204.25;6119636;23;20025;-85
2024/01/03 10:31:49;;;;;;;5.97;1.67;;;;;;;10.30;100.00;98220.66;6119581;23;20053;-84
2024/01/03 10:34:23;;;;;;;9.50;1.25;;;;;;;10.34;100.00;98223.81;6144106;23;20021;-83
2024/01/03 10:36:53;;;;;;;5.18;1.30;;;;;;;10.30;100.00;98225.16;6094959;23;20014;-83
2024/01/03 10:39:20;;;;;;;6.38;1.60;;;;;;;10.25;100.00;98248.69;6119255;23;20013;-82
2024/01/03 10:41:48;;;;;;;9.15;1.73;;;;;;;10.26;100.00;98261.81;6118370;23;20030;-83
2024/01/03 10:44:17;;;;;;;6.47;1.50;;;;;;;10.30;100.00;98278.22;6094975;23;20033;-83
2024/01/03 10:46:45;;;;;;;12.73;1.60;;;;;;;10.30;100.00;98263.13;6093961;23;20030;-84
2024/01/03 10:49:11;;;;;;;6.60;1.20;;;;;;;10.35;100.00;98281.19;6094039;23;20021;-83
2024/01/03 10:51:43;;;;;;;2.88;1.02;;;;;;;10.36;100.00;98275.72;6143615;23;20080;-84
2024/01/03 10:54:16;;;;;;;7.70;1.40;;;;;;;10.34;100.00;98298.94;6119870;23;20350;-83
2024/01/03 10:56:51;;;;;;;5.32;1.17;;;;;;;10.35;100.00;98297.91;6095166;23;20026;-83
2024/01/03 10:59:23;;;;;;;16.30;3.10;;;;;;;10.40;100.00;98310.69;6048299;23;20401;-83
2024/01/03 11:01:55;;;;;;;7.28;1.50;;;;;;;10.36;100.00;98290.81;6067576;23;20025;-83
2024/01/03 11:04:32;;;;;;;8.70;1.50;;;;;;;10.36;100.00;98288.97;6145661;23;20045;-84
2024/01/03 11:07:09;;;;;;;7.55;1.17;;;;;;;10.37;100.00;98300.41;6095457;23;20017;-83
2024/01/03 11:09:36;;;;;;;10.75;1.65;;;;;;;10.36;100.00;98298.78;6120276;23;20352;-82
2024/01/03 11:12:07;;;;;;;8.20;2.80;;;;;;;10.34;100.00;98290.97;6120361;23;20029;-82
2024/01/03 11:14:34;;;;;;;7.20;1.88;;;;;;;10.34;100.00;98284.84;6121221;23;20105;-82
2024/01/03 11:17:01;;;;;;;13.45;2.55;;;;;;;10.40;100.00;98284.97;6144346;23;20049;-83
2024/01/03 11:19:30;;;;;;;7.97;2.47;;;;;;;10.43;100.00;98266.06;6121256;23;20018;-82
2024/01/03 11:22:02;;;;;;;6.95;2.40;;;;;;;10.41;100.00;98265.41;6072698;23;20044;-83
2024/01/03 11:24:32;;;;;;;4.32;1.60;;;;;;;10.42;100.00;98266.22;6121060;23;20453;-84
2024/01/03 11:27:04;;;;;;;4.22;1.40;;;;;;;10.49;100.00;98263.72;6144981;23;20370;-83
2024/01/03 11:29:50;;;;;;;4.95;1.40;;;;;;;10.52;100.00;98260.72;6120761;23;20014;-85
2024/01/03 11:32:35;;;;;;;4.40;1.40;;;;;;;10.50;100.00;98265.38;6146944;23;20041;-84
2024/01/03 11:35:08;;;;;;;2.33;1.13;;;;;;;10.55;100.00;98255.88;6119955;23;20028;-83